Time;durP1;ratioP1;P1;durP2;ratioP2;P2;SDS_P1;SDS_P2;PMS_P1;PMS_P2;Temp;Humidity;BMP_temperature;BMP_pressure;BME280_temperature;BME280_humidity;BME280_pressure;Samples;Min_cycle;Max_cycle;Signal;HPM_P1;HPM_P2
2021/06/16 00:01:06;;;;;;;6.60;4.03;;;;;;;15.06;64.55;96741.78;1656012;85;20954;-79
2021/06/16 00:03:32;;;;;;;5.30;4.25;;;;;;;15.03;64.53;96744.30;1655540;85;20997;-79
2021/06/16 00:05:58;;;;;;;7.50;3.95;;;;;;;15.01;64.92;96751.05;1655775;85;21001;-79
2021/06/16 00:08:24;;;;;;;5.37;4.03;;;;;;;14.98;64.86;96750.65;1655526;85;20934;-78
2021/06/16 00:10:50;;;;;;;6.10;3.60;;;;;;;14.93;64.62;96756.45;1669409;85;20972;-79
2021/06/16 00:13:17;;;;;;;5.20;4.17;;;;;;;14.91;64.75;96757.16;1646430;85;21001;-79
2021/06/16 00:15:43;;;;;;;5.28;4.12;;;;;;;14.89;64.86;96755.25;1637812;85;20933;-79
2021/06/16 00:18:09;;;;;;;4.35;3.60;;;;;;;14.89;64.94;96758.38;1655912;85;21067;-78
2021/06/16 00:20:34;;;;;;;5.70;3.60;;;;;;;14.90;64.57;96753.44;1655598;85;21004;-78
2021/06/16 00:23:01;;;;;;;9.35;4.47;;;;;;;14.89;64.77;96750.02;1655774;85;21026;-78
2021/06/16 00:25:26;;;;;;;7.08;4.28;;;;;;;14.90;64.93;96753.44;1655341;85;20964;-79
2021/06/16 00:27:52;;;;;;;5.67;3.45;;;;;;;14.89;64.90;96751.33;1655463;85;21001;-78
2021/06/16 00:30:19;;;;;;;5.40;3.87;;;;;;;14.87;64.99;96755.95;1631145;87;21009;-79
2021/06/16 00:32:44;;;;;;;4.92;3.42;;;;;;;14.83;65.00;96759.98;1647772;85;21065;-79
2021/06/16 00:35:11;;;;;;;6.12;3.98;;;;;;;14.80;65.21;96766.09;1653570;85;21322;-78
2021/06/16 00:37:37;;;;;;;7.28;3.62;;;;;;;14.76;65.16;96760.96;1655819;85;21353;-79
2021/06/16 00:40:09;;;;;;;8.90;4.15;;;;;;;14.72;65.12;96757.94;1657332;85;20950;-78
2021/06/16 00:42:35;;;;;;;;;;;;;;;14.69;65.24;96758.34;1657778;85;20989;-80
2021/06/16 00:45:03;;;;;;;4.97;3.67;;;;;;;14.68;65.24;96758.04;1656256;85;20164;-79
2021/06/16 00:47:29;;;;;;;6.17;3.60;;;;;;;14.68;65.12;96760.16;1655783;85;20945;-79
2021/06/16 00:49:54;;;;;;;6.00;4.05;;;;;;;14.70;64.92;96761.27;1654934;85;20969;-79
2021/06/16 00:52:20;;;;;;;6.25;4.33;;;;;;;14.70;64.64;96755.53;1653570;85;21083;-79
2021/06/16 00:54:46;;;;;;;7.37;4.45;;;;;;;14.70;64.59;96754.22;1655572;85;20989;-80
2021/06/16 00:57:12;;;;;;;6.83;4.12;;;;;;;14.68;64.41;96756.23;1655560;85;21311;-79
2021/06/16 00:59:55;;;;;;;6.08;4.00;;;;;;;14.66;64.38;96752.20;1627364;87;20953;-79
2021/06/16 01:02:21;;;;;;;5.60;3.75;;;;;;;14.65;64.19;96756.63;1644580;85;21005;-79
2021/06/16 01:04:48;;;;;;;7.03;4.20;;;;;;;14.62;64.12;96747.84;1647707;85;21274;-79
2021/06/16 01:07:14;;;;;;;6.22;4.25;;;;;;;14.59;64.08;96740.91;1655481;85;21018;-79
2021/06/16 01:09:52;;;;;;;8.10;4.25;;;;;;;14.57;63.93;96745.53;1606850;87;21293;-79
2021/06/16 01:12:32;;;;;;;5.87;4.22;;;;;;;14.57;64.00;96748.95;1668831;85;21041;-80
2021/06/16 01:15:10;;;;;;;9.10;4.30;;;;;;;14.58;64.42;96737.48;1648522;85;21459;-80
2021/06/16 01:17:52;;;;;;;7.03;4.53;;;;;;;14.59;64.54;96738.30;1655551;85;21041;-80
2021/06/16 01:20:38;;;;;;;;;;;;;;;14.57;64.66;96731.95;1657273;85;20942;-80
2021/06/16 01:23:21;;;;;;;5.20;4.28;;;;;;;14.57;65.07;96744.23;1655940;85;20322;-79
2021/06/16 01:26:04;;;;;;;4.65;3.75;;;;;;;14.53;65.48;96739.90;1652970;85;21068;-80
2021/06/16 01:28:37;;;;;;;5.78;3.92;;;;;;;14.52;65.27;96745.33;1648695;86;21041;-80
2021/06/16 01:31:03;;;;;;;6.12;4.22;;;;;;;14.50;65.62;96738.99;1625621;85;21033;-80
2021/06/16 01:33:29;;;;;;;6.40;4.12;;;;;;;14.51;65.57;96734.56;1655683;85;21000;-80
2021/06/16 01:35:55;;;;;;;5.45;4.15;;;;;;;14.55;65.66;96743.62;1655051;85;20976;-80
2021/06/16 01:38:22;;;;;;;5.05;3.87;;;;;;;14.57;65.75;96736.38;1655570;85;20996;-80
2021/06/16 01:40:50;;;;;;;5.70;4.30;;;;;;;14.60;66.10;96739.91;1655781;85;21032;-78
2021/06/16 01:43:17;;;;;;;6.47;4.25;;;;;;;14.62;66.30;96742.62;1635932;87;21301;-78
2021/06/16 01:45:44;;;;;;;7.72;4.60;;;;;;;14.62;66.17;96739.20;1627037;85;21041;-77
2021/06/16 01:48:13;;;;;;;4.70;4.00;;;;;;;14.62;66.09;96745.73;1627733;87;20989;-77
2021/06/16 01:50:40;;;;;;;8.23;4.28;;;;;;;14.60;66.15;96751.17;1655009;85;20951;-77
2021/06/16 01:53:06;;;;;;;4.85;3.98;;;;;;;14.56;66.27;96736.08;1628029;87;20977;-78
2021/06/16 01:55:32;;;;;;;7.90;3.85;;;;;;;14.58;66.37;96737.99;1608234;87;21382;-78
2021/06/16 01:57:58;;;;;;;6.45;3.60;;;;;;;14.60;66.28;96741.20;1655036;85;21034;-78
2021/06/16 02:00:24;;;;;;;5.70;4.12;;;;;;;14.64;66.15;96739.80;1655217;85;20958;-78
2021/06/16 02:02:49;;;;;;;4.87;4.15;;;;;;;14.65;66.14;96738.33;1644894;85;20953;-78
2021/06/16 02:05:18;;;;;;;5.15;4.20;;;;;;;14.66;66.11;96741.24;1647221;85;21353;-78
2021/06/16 02:07:49;;;;;;;6.35;4.65;;;;;;;14.66;66.22;96741.75;1654164;85;21310;-78
2021/06/16 02:10:15;;;;;;;5.87;4.20;;;;;;;14.64;66.13;96748.95;1656046;85;21022;-78
2021/06/16 02:12:43;;;;;;;6.10;4.17;;;;;;;14.62;66.22;96749.16;1671451;85;21062;-77
2021/06/16 02:15:13;;;;;;;8.95;4.87;;;;;;;14.58;66.36;96748.45;1656310;85;21025;-77
2021/06/16 02:17:39;;;;;;;7.22;4.08;;;;;;;14.57;66.56;96748.15;1631454;87;21008;-78
2021/06/16 02:20:06;;;;;;;5.62;4.10;;;;;;;14.54;66.27;96743.32;1667790;85;20943;-78
2021/06/16 02:22:32;;;;;;;5.80;3.75;;;;;;;14.55;66.09;96746.23;1661681;85;21364;-78
2021/06/16 02:24:57;;;;;;;6.72;3.85;;;;;;;14.57;66.00;96741.11;1656517;85;20994;-77
2021/06/16 02:27:23;;;;;;;7.70;4.47;;;;;;;14.59;65.76;96738.30;1631275;87;21037;-78
2021/06/16 02:29:49;;;;;;;5.65;3.92;;;;;;;14.60;66.00;96738.59;1655142;85;21040;-77
2021/06/16 02:32:15;;;;;;;6.35;4.95;;;;;;;14.60;66.27;96743.83;1640477;85;21333;-78
2021/06/16 02:34:40;;;;;;;6.80;4.90;;;;;;;14.61;66.45;96746.23;1665206;85;21018;-77
2021/06/16 02:37:09;;;;;;;7.75;4.70;;;;;;;14.62;66.25;96744.43;1637244;85;20985;-78
2021/06/16 02:39:40;;;;;;;6.87;4.20;;;;;;;14.62;66.15;96752.27;1655383;85;21026;-78
2021/06/16 02:42:07;;;;;;;7.47;4.60;;;;;;;14.62;66.40;96754.89;1656607;85;21314;-78
2021/06/16 02:44:34;;;;;;;6.10;4.20;;;;;;;14.62;66.58;96750.47;1630883;87;20977;-78
2021/06/16 02:47:00;;;;;;;5.45;3.83;;;;;;;14.64;66.50;96739.80;1655190;85;20985;-78
2021/06/16 02:49:33;;;;;;;7.37;4.05;;;;;;;14.68;66.57;96737.12;1649740;85;20965;-78
2021/06/16 02:52:00;;;;;;;6.55;4.22;;;;;;;14.72;66.46;96740.94;1643648;85;21036;-78
2021/06/16 02:54:26;;;;;;;5.17;4.03;;;;;;;14.77;66.57;96737.72;1655516;85;21030;-77
2021/06/16 02:56:52;;;;;;;5.85;4.50;;;;;;;14.80;66.80;96742.05;1655499;85;21338;-78
2021/06/16 02:59:19;;;;;;;6.00;4.47;;;;;;;14.81;67.18;96744.99;1655741;85;20957;-78
2021/06/16 03:01:45;;;;;;;4.28;3.70;;;;;;;14.83;67.46;96737.75;1655543;85;21350;-77
2021/06/16 03:04:11;;;;;;;7.30;4.40;;;;;;;14.85;67.36;96734.42;1655764;85;20977;-78
2021/06/16 03:06:37;;;;;;;6.03;3.90;;;;;;;14.88;67.38;96737.95;1672400;85;20961;-78
2021/06/16 03:09:03;;;;;;;5.50;3.80;;;;;;;14.94;67.17;96740.25;1652812;85;21293;-78
2021/06/16 03:11:29;;;;;;;7.17;4.00;;;;;;;14.99;67.01;96742.59;1666091;85;20939;-78
2021/06/16 03:13:55;;;;;;;7.03;3.72;;;;;;;15.07;67.11;96744.20;1658633;85;20968;-78
2021/06/16 03:16:23;;;;;;;5.58;3.92;;;;;;;15.15;67.40;96743.20;1655616;85;21021;-78
2021/06/16 03:18:49;;;;;;;5.35;4.17;;;;;;;15.19;67.51;96741.28;1655512;85;20988;-78
2021/06/16 03:21:16;;;;;;;6.03;4.50;;;;;;;15.22;67.50;96743.50;1627639;87;21107;-78
2021/06/16 03:23:42;;;;;;;5.55;4.00;;;;;;;15.25;67.59;96748.32;1657129;85;21284;-78
2021/06/16 03:26:08;;;;;;;6.55;3.92;;;;;;;15.28;67.64;96750.53;1658905;85;21007;-78
2021/06/16 03:28:33;;;;;;;4.58;3.67;;;;;;;15.33;67.67;96751.25;1655324;85;20997;-78
2021/06/16 03:30:59;;;;;;;8.23;4.20;;;;;;;15.40;67.70;96756.48;1671804;85;21386;-78
2021/06/16 03:33:25;;;;;;;5.28;4.08;;;;;;;15.45;67.77;96755.35;1658151;85;20989;-78
2021/06/16 03:35:51;;;;;;;4.78;3.85;;;;;;;15.49;67.86;96762.63;1648133;85;20950;-78
2021/06/16 03:38:17;;;;;;;5.92;4.10;;;;;;;15.50;68.08;96753.75;1628295;87;21351;-78
2021/06/16 03:40:43;;;;;;;5.75;4.08;;;;;;;15.52;68.22;96751.73;1655848;85;21042;-78
2021/06/16 03:43:11;;;;;;;6.25;4.22;;;;;;;15.51;68.10;96755.36;1654760;85;20993;-78
2021/06/16 03:45:39;;;;;;;6.87;3.95;;;;;;;15.50;68.26;96756.38;1656277;85;20937;-78
2021/06/16 03:48:06;;;;;;;7.08;4.12;;;;;;;15.52;68.19;96758.79;1654981;85;20985;-77
2021/06/16 03:50:32;;;;;;;5.72;4.35;;;;;;;15.53;68.29;96760.39;1655730;85;21310;-77
2021/06/16 03:52:58;;;;;;;4.42;3.67;;;;;;;15.53;68.46;96757.27;1654835;85;20995;-77
2021/06/16 03:55:23;;;;;;;6.78;4.25;;;;;;;15.53;68.62;96760.39;1655580;85;20973;-78
2021/06/16 03:57:50;;;;;;;5.03;3.85;;;;;;;15.51;68.50;96755.88;1655367;85;21013;-78
2021/06/16 04:00:18;;;;;;;6.28;4.37;;;;;;;15.48;68.43;96756.28;1655766;85;21282;-78
2021/06/16 04:02:47;;;;;;;5.58;4.30;;;;;;;15.45;68.42;96754.84;1627721;87;20997;-78
2021/06/16 04:05:14;;;;;;;5.03;3.40;;;;;;;15.43;68.73;96756.06;1656075;85;20976;-78
2021/06/16 04:07:40;;;;;;;8.58;3.92;;;;;;;15.42;68.83;96756.57;1662255;85;21359;-78
2021/06/16 04:10:06;;;;;;;5.67;3.80;;;;;;;15.41;68.89;96751.03;1643275;86;20976;-78
2021/06/16 04:12:32;;;;;;;5.40;4.35;;;;;;;15.40;68.91;96754.66;1669486;85;21322;-78
2021/06/16 04:14:58;;;;;;;4.95;4.35;;;;;;;15.38;69.05;96757.19;1643064;85;20940;-78
2021/06/16 04:17:23;;;;;;;6.25;4.60;;;;;;;15.35;69.09;96757.59;1655308;85;21033;-78
2021/06/16 04:19:51;;;;;;;5.40;4.40;;;;;;;15.31;69.19;96758.51;1647268;85;20989;-78
2021/06/16 04:22:18;;;;;;;5.50;4.60;;;;;;;15.29;69.23;96764.42;1645618;85;21081;-78
2021/06/16 04:24:44;;;;;;;4.40;3.77;;;;;;;15.26;69.41;96760.40;1655382;85;21285;-78
2021/06/16 04:27:09;;;;;;;5.20;4.17;;;;;;;15.25;69.48;96758.79;1655371;85;20969;-78
2021/06/16 04:29:36;;;;;;;6.80;4.30;;;;;;;15.28;69.57;96757.58;1655719;85;20961;-78
2021/06/16 04:32:03;;;;;;;6.15;4.40;;;;;;;15.30;69.63;96760.33;1647813;85;20986;-78
2021/06/16 04:34:28;;;;;;;6.28;4.83;;;;;;;15.32;69.65;96766.66;1655031;85;20970;-77
2021/06/16 04:36:54;;;;;;;7.17;4.60;;;;;;;15.33;69.77;96765.66;1636700;85;20982;-77
2021/06/16 04:39:20;;;;;;;6.35;4.72;;;;;;;15.34;69.88;96763.84;1655558;85;20953;-78
2021/06/16 04:41:46;;;;;;;7.83;4.05;;;;;;;15.33;70.10;96768.27;1646380;85;20958;-78
2021/06/16 04:44:12;;;;;;;5.70;3.60;;;;;;;15.35;70.15;96768.06;1674450;85;21017;-78
2021/06/16 04:46:38;;;;;;;4.75;3.55;;;;;;;15.38;70.11;96765.04;1656129;85;20953;-78
2021/06/16 04:49:04;;;;;;;5.53;4.05;;;;;;;15.42;70.20;96771.47;1655609;85;20925;-78
2021/06/16 04:51:30;;;;;;;5.92;4.45;;;;;;;15.44;70.15;96771.57;1657140;85;21306;-78
2021/06/16 04:53:55;;;;;;;5.85;4.45;;;;;;;15.45;70.41;96769.76;1656098;85;20977;-78
2021/06/16 04:56:22;;;;;;;7.35;4.15;;;;;;;15.46;70.66;96776.63;1674433;85;20998;-78
2021/06/16 04:58:47;;;;;;;5.05;3.70;;;;;;;15.46;70.85;96772.20;1654816;85;21049;-78
2021/06/16 05:01:13;;;;;;;5.33;3.90;;;;;;;15.49;70.99;96771.79;1655839;85;20972;-78
2021/06/16 05:03:39;;;;;;;4.58;3.80;;;;;;;15.52;70.89;96774.00;1655808;85;21314;-78
2021/06/16 05:06:05;;;;;;;6.28;3.85;;;;;;;15.55;70.87;96776.20;1655944;85;20997;-78
2021/06/16 05:08:30;;;;;;;6.95;4.15;;;;;;;15.58;70.94;96780.23;1653926;85;20996;-77
2021/06/16 05:10:56;;;;;;;6.33;4.67;;;;;;;15.60;71.04;96780.35;1644595;85;20921;-78
2021/06/16 05:13:23;;;;;;;7.28;4.85;;;;;;;15.61;71.30;96780.65;1688012;84;21258;-78
2021/06/16 05:15:51;;;;;;;5.55;3.95;;;;;;;15.64;71.52;96783.90;1655896;85;21053;-78
2021/06/16 05:18:17;;;;;;;4.47;3.72;;;;;;;15.69;71.58;96779.65;1655803;85;20995;-78
2021/06/16 05:20:42;;;;;;;5.78;4.10;;;;;;;15.75;71.64;96781.44;1655570;85;21000;-77
2021/06/16 05:23:08;;;;;;;6.55;4.58;;;;;;;15.80;71.88;96776.42;1655104;85;21062;-78
2021/06/16 05:25:34;;;;;;;6.67;4.55;;;;;;;15.85;72.22;96782.34;1654869;85;21346;-78
2021/06/16 05:27:59;;;;;;;6.62;4.10;;;;;;;15.86;71.96;96782.14;1656290;85;21096;-77
2021/06/16 05:30:25;;;;;;;6.10;4.35;;;;;;;15.90;72.24;96780.70;1655788;85;20984;-78
2021/06/16 05:32:51;;;;;;;6.00;3.95;;;;;;;15.97;72.11;96782.02;1656657;85;20949;-77
2021/06/16 05:35:17;;;;;;;5.35;4.20;;;;;;;16.03;71.94;96786.94;1656537;85;21306;-78
2021/06/16 05:37:45;;;;;;;5.30;4.58;;;;;;;16.11;72.30;96788.84;1656366;85;20977;-78
2021/06/16 05:40:12;;;;;;;5.72;5.05;;;;;;;16.17;72.16;96795.06;1632808;85;20955;-77
2021/06/16 05:42:38;;;;;;;6.47;5.37;;;;;;;16.21;72.62;96789.70;1658419;85;21005;-77
2021/06/16 05:45:06;;;;;;;5.65;4.70;;;;;;;16.28;72.80;96788.38;1673239;85;21011;-78
2021/06/16 05:47:32;;;;;;;7.08;4.83;;;;;;;16.35;73.00;96791.77;1639035;85;21001;-77
2021/06/16 05:49:59;;;;;;;7.80;5.58;;;;;;;16.43;73.04;96791.52;1655027;85;21006;-78
2021/06/16 05:52:24;;;;;;;7.53;5.47;;;;;;;16.52;72.99;96791.60;1637404;85;21064;-78
2021/06/16 05:54:50;;;;;;;7.67;5.37;;;;;;;16.61;73.32;96799.54;1668219;84;21365;-78
2021/06/16 05:57:16;;;;;;;8.33;6.50;;;;;;;16.70;73.39;96796.19;1660276;85;21108;-78
2021/06/16 05:59:42;;;;;;;10.60;6.10;;;;;;;16.78;72.58;96792.82;1655688;85;20965;-78
2021/06/16 06:02:07;;;;;;;7.28;5.08;;;;;;;16.86;72.62;96794.89;1653773;85;20980;-78
2021/06/16 06:04:34;;;;;;;7.78;5.05;;;;;;;16.96;72.93;96797.87;1653160;85;20944;-78
2021/06/16 06:07:00;;;;;;;9.68;5.80;;;;;;;17.05;73.00;96794.76;1655513;85;21027;-78
2021/06/16 06:09:25;;;;;;;7.33;5.90;;;;;;;17.13;72.62;96794.22;1655400;85;21006;-78
2021/06/16 06:11:51;;;;;;;8.63;5.75;;;;;;;17.20;72.68;96795.77;1670531;85;20957;-78
2021/06/16 06:14:17;;;;;;;8.30;5.65;;;;;;;17.27;72.49;96801.80;1644870;85;21310;-78
2021/06/16 06:16:43;;;;;;;10.10;6.62;;;;;;;17.36;72.34;96798.38;1655911;85;20921;-78
2021/06/16 06:19:08;;;;;;;9.83;6.90;;;;;;;17.43;72.23;96787.84;1655224;85;20925;-78
2021/06/16 06:21:34;;;;;;;8.28;6.17;;;;;;;17.56;71.50;96791.13;1657243;85;20982;-78
2021/06/16 06:24:00;;;;;;;8.08;5.80;;;;;;;17.69;71.54;96799.45;1654499;85;21054;-78
2021/06/16 06:26:26;;;;;;;7.53;6.28;;;;;;;17.76;71.26;96794.95;1673179;85;20947;-79
2021/06/16 06:28:52;;;;;;;10.75;6.30;;;;;;;17.82;71.39;96798.02;1655762;85;21274;-78
2021/06/16 06:31:17;;;;;;;9.65;6.78;;;;;;;17.87;71.16;96792.91;1655513;85;21000;-78
2021/06/16 06:33:43;;;;;;;10.70;6.40;;;;;;;17.94;70.71;96788.91;1655473;85;20965;-78
2021/06/16 06:36:09;;;;;;;8.68;5.58;;;;;;;18.06;70.96;96795.06;1655486;85;20977;-78
2021/06/16 06:38:35;;;;;;;7.87;6.28;;;;;;;18.17;70.89;96796.14;1670573;85;21263;-78
2021/06/16 06:41:00;;;;;;;8.73;6.70;;;;;;;18.27;70.14;96795.93;1659547;85;20953;-78
2021/06/16 06:43:26;;;;;;;9.48;6.65;;;;;;;18.39;69.11;96799.95;1656000;85;20993;-78
2021/06/16 06:45:52;;;;;;;8.25;6.12;;;;;;;18.56;69.16;96806.73;1655443;85;20981;-78
2021/06/16 06:48:18;;;;;;;8.35;6.35;;;;;;;18.72;67.36;96800.89;1655183;85;20949;-78
2021/06/16 06:50:45;;;;;;;7.53;5.92;;;;;;;18.87;68.97;96800.45;1674827;85;21049;-78
2021/06/16 06:53:11;;;;;;;11.05;5.90;;;;;;;18.95;68.41;96801.47;1654952;85;21325;-78
2021/06/16 06:55:37;;;;;;;8.93;5.37;;;;;;;19.03;67.46;96797.70;1674102;84;20981;-78
2021/06/16 06:58:03;;;;;;;9.53;5.33;;;;;;;19.14;67.71;96797.75;1655596;85;21031;-78
2021/06/16 07:00:28;;;;;;;7.10;4.90;;;;;;;19.30;65.46;96793.66;1661667;85;20950;-78
2021/06/16 07:02:57;;;;;;;11.65;6.60;;;;;;;19.46;65.53;96798.27;1668950;85;20963;-79
2021/06/16 07:05:24;;;;;;;7.05;4.95;;;;;;;19.64;64.89;96787.36;1656716;85;21049;-78
2021/06/16 07:07:50;;;;;;;7.40;5.15;;;;;;;19.84;63.83;96781.73;1677482;85;21350;-78
2021/06/16 07:10:16;;;;;;;10.05;5.53;;;;;;;19.92;64.13;96787.48;1656576;85;21011;-78
2021/06/16 07:12:41;;;;;;;8.65;5.42;;;;;;;19.98;64.30;96791.02;1646184;85;21021;-79
2021/06/16 07:15:09;;;;;;;6.60;5.33;;;;;;;20.08;63.88;96788.09;1655334;85;21062;-78
2021/06/16 07:17:35;;;;;;;6.37;4.90;;;;;;;20.20;64.18;96786.77;1627149;87;21054;-78
2021/06/16 07:20:04;;;;;;;7.25;5.00;;;;;;;20.27;62.68;96788.74;1655509;85;20997;-78
2021/06/16 07:22:30;;;;;;;7.72;4.58;;;;;;;20.31;63.21;96789.88;1641739;85;21083;-78
2021/06/16 07:24:55;;;;;;;7.12;4.78;;;;;;;20.41;62.01;96799.87;1632775;85;21025;-79
2021/06/16 07:27:21;;;;;;;6.70;4.92;;;;;;;20.48;61.35;96792.61;1655739;85;21254;-78
2021/06/16 07:29:47;;;;;;;5.97;4.03;;;;;;;20.54;61.74;96793.53;1655195;85;20931;-78
2021/06/16 07:32:12;;;;;;;7.25;3.87;;;;;;;20.58;59.37;96798.63;1655435;85;20958;-78
2021/06/16 07:34:38;;;;;;;6.12;4.10;;;;;;;20.66;59.86;96798.23;1655582;85;20998;-78
2021/06/16 07:37:04;;;;;;;4.37;3.65;;;;;;;20.72;59.34;96791.23;1655286;85;21322;-78
2021/06/16 07:39:30;;;;;;;7.37;4.42;;;;;;;20.84;57.00;96797.27;1637321;85;21024;-78
2021/06/16 07:41:55;;;;;;;5.28;4.00;;;;;;;20.95;58.42;96801.16;1658885;85;21002;-79
2021/06/16 07:44:21;;;;;;;5.30;4.25;;;;;;;21.03;58.43;96805.28;1656224;85;20958;-79
2021/06/16 07:46:47;;;;;;;6.12;4.40;;;;;;;21.10;57.59;96800.63;1656233;85;21450;-78
2021/06/16 07:49:13;;;;;;;7.40;4.17;;;;;;;21.20;58.09;96801.34;1655560;85;20961;-78
2021/06/16 07:51:40;;;;;;;6.15;4.55;;;;;;;21.23;56.66;96804.30;1654881;85;21021;-79
2021/06/16 07:54:11;;;;;;;7.90;4.28;;;;;;;21.30;55.67;96808.13;1654154;85;21390;-78
2021/06/16 07:56:33;;;;;;;7.30;4.30;;;;;;;21.34;54.67;96808.48;1655296;85;21041;-78
2021/06/16 07:58:59;;;;;;;5.30;4.20;;;;;;;21.37;56.46;96803.50;1655855;85;21017;-79
2021/06/16 08:01:25;;;;;;;7.22;4.47;;;;;;;21.46;55.99;96808.66;1656011;85;21285;-79
2021/06/16 08:03:50;;;;;;;6.65;4.33;;;;;;;21.56;56.75;96808.83;1653832;85;21040;-78
2021/06/16 08:06:16;;;;;;;6.35;4.70;;;;;;;21.65;54.03;96801.83;1655924;85;21009;-78
2021/06/16 08:08:42;;;;;;;6.45;5.00;;;;;;;21.73;56.80;96798.25;1656304;85;21029;-78
2021/06/16 08:11:08;;;;;;;7.53;5.40;;;;;;;21.74;55.53;96802.48;1678093;85;21421;-77
2021/06/16 08:13:33;;;;;;;5.62;4.30;;;;;;;21.85;54.65;96809.54;1672972;84;21030;-79
2021/06/16 08:15:59;;;;;;;7.20;4.50;;;;;;;21.94;55.21;96805.95;1656167;85;20983;-78
2021/06/16 08:18:25;;;;;;;6.33;4.58;;;;;;;22.03;55.34;96809.79;1653907;85;21061;-78
2021/06/16 08:20:51;;;;;;;6.00;5.40;;;;;;;22.18;55.30;96815.05;1655900;85;21346;-78
2021/06/16 08:23:17;;;;;;;5.92;4.28;;;;;;;22.29;54.95;96818.08;1654422;85;21067;-79
2021/06/16 08:25:42;;;;;;;5.78;4.45;;;;;;;22.45;54.51;96817.23;1655464;85;21017;-78
2021/06/16 08:28:08;;;;;;;7.75;4.72;;;;;;;22.58;54.07;96816.06;1656598;85;21397;-78
2021/06/16 08:30:35;;;;;;;4.78;3.83;;;;;;;22.74;54.62;96816.52;1652534;85;21005;-78
2021/06/16 08:33:01;;;;;;;8.05;4.90;;;;;;;22.82;53.01;96825.89;1652635;85;21273;-79
2021/06/16 08:35:27;;;;;;;5.17;4.22;;;;;;;22.87;54.04;96824.64;1655831;85;20965;-78
2021/06/16 08:37:52;;;;;;;7.80;4.87;;;;;;;22.97;54.19;96830.06;1640597;85;21014;-79
2021/06/16 08:40:18;;;;;;;6.90;4.60;;;;;;;23.09;53.69;96828.04;1631339;85;21025;-78
2021/06/16 08:42:48;;;;;;;5.83;3.65;;;;;;;23.21;51.42;96830.02;1655121;85;20962;-79
2021/06/16 08:45:16;;;;;;;6.10;4.03;;;;;;;23.25;49.47;96829.78;1656323;85;20937;-79
2021/06/16 08:47:42;;;;;;;5.30;3.95;;;;;;;23.39;52.90;96830.70;1638024;85;21049;-78
2021/06/16 08:50:10;;;;;;;4.92;3.87;;;;;;;23.53;51.33;96827.39;1629966;87;21035;-78
2021/06/16 08:52:37;;;;;;;5.05;3.75;;;;;;;23.64;51.63;96825.13;1655979;85;21022;-78
2021/06/16 08:55:05;;;;;;;5.45;3.72;;;;;;;23.73;51.46;96824.11;1667467;84;21026;-79
2021/06/16 08:57:31;;;;;;;5.12;3.62;;;;;;;23.83;51.17;96824.20;1670955;85;21052;-79
2021/06/16 08:59:57;;;;;;;5.47;4.47;;;;;;;23.99;49.92;96821.64;1657791;85;20976;-79
2021/06/16 09:02:23;;;;;;;6.42;3.58;;;;;;;24.23;50.07;96820.17;1648894;85;20970;-79
2021/06/16 09:04:51;;;;;;;6.30;3.75;;;;;;;24.23;50.07;96820.17;1637219;85;20992;-79
2021/06/16 09:07:27;;;;;;;5.72;3.70;;;;;;;24.38;51.87;96818.16;1646125;85;21008;-79
2021/06/16 09:10:16;;;;;;;5.08;3.70;;;;;;;24.42;49.49;96825.91;1662400;85;21281;-80
2021/06/16 09:12:47;;;;;;;5.03;3.27;;;;;;;24.50;48.94;96818.75;1675017;85;20933;-80
2021/06/16 09:15:16;;;;;;;5.13;3.70;;;;;;;24.58;47.97;96820.92;1647168;85;21018;-81
2021/06/16 09:17:42;;;;;;;4.80;3.52;;;;;;;24.60;48.48;96818.80;1662950;85;21008;-80
2021/06/16 09:20:09;;;;;;;4.15;3.55;;;;;;;24.63;48.80;96818.81;1662954;85;20971;-81
2021/06/16 09:22:38;;;;;;;4.37;3.02;;;;;;;24.64;47.34;96828.38;1662939;85;21052;-80
2021/06/16 09:25:07;;;;;;;6.25;4.20;;;;;;;24.60;47.65;96829.96;1664280;85;21037;-79
2021/06/16 09:27:50;;;;;;;5.10;3.83;;;;;;;24.60;46.99;96830.76;1662635;85;20969;-80
2021/06/16 09:30:25;;;;;;;4.15;3.75;;;;;;;24.60;47.17;96836.08;1663754;85;21372;-80
2021/06/16 09:32:58;;;;;;;4.30;3.30;;;;;;;24.70;48.70;96835.30;1661992;85;21028;-80
2021/06/16 09:35:27;;;;;;;5.65;3.75;;;;;;;24.78;48.62;96831.62;1663005;85;20993;-80
2021/06/16 09:37:53;;;;;;;5.60;3.40;;;;;;;24.87;48.94;96835.08;1682958;85;21012;-80
2021/06/16 09:40:38;;;;;;;5.78;3.67;;;;;;;24.89;48.83;96836.95;1664024;85;21012;-80
2021/06/16 09:43:09;;;;;;;5.35;3.80;;;;;;;24.94;49.32;96835.65;1659401;85;20983;-80
2021/06/16 09:45:37;;;;;;;5.20;3.60;;;;;;;24.95;46.40;96830.60;1663488;85;21019;-80
2021/06/16 09:48:25;;;;;;;5.45;4.10;;;;;;;24.96;47.46;96829.54;1663079;85;20937;-80
2021/06/16 09:50:53;;;;;;;4.67;3.98;;;;;;;25.01;47.27;96826.38;1652635;85;20988;-80
2021/06/16 09:53:19;;;;;;;4.65;4.03;;;;;;;25.04;46.95;96832.50;1650482;85;21420;-80
2021/06/16 09:55:45;;;;;;;5.28;3.65;;;;;;;25.09;47.96;96830.41;1655437;85;21040;-80
2021/06/16 09:58:16;;;;;;;7.55;4.20;;;;;;;25.08;47.27;96833.59;1655780;85;21318;-80
2021/06/16 10:00:43;;;;;;;5.37;4.30;;;;;;;25.11;48.22;96833.59;1656512;85;21048;-80
2021/06/16 10:03:21;;;;;;;6.17;3.92;;;;;;;25.18;48.32;96832.80;1655749;85;21290;-81
2021/06/16 10:06:14;;;;;;;5.40;4.50;;;;;;;25.21;49.63;96835.45;1655995;85;20972;-81
2021/06/16 10:08:48;;;;;;;6.85;4.42;;;;;;;25.20;48.32;96823.22;1656515;85;21308;-79
2021/06/16 10:11:17;;;;;;;6.55;4.55;;;;;;;25.20;47.34;96823.22;1656798;85;21040;-80
2021/06/16 10:13:44;;;;;;;6.20;4.08;;;;;;;25.20;47.26;96823.22;1673827;84;21334;-81
2021/06/16 10:16:10;;;;;;;5.08;4.00;;;;;;;25.18;47.06;96820.03;1655988;85;21017;-81
2021/06/16 10:18:44;;;;;;;5.87;4.37;;;;;;;25.21;48.54;96816.30;1655677;85;21069;-80
2021/06/16 10:21:16;;;;;;;5.60;4.37;;;;;;;25.23;48.11;96813.41;1656011;85;21014;-79
2021/06/16 10:23:42;;;;;;;7.22;5.00;;;;;;;25.29;49.31;96816.33;1655610;85;21009;-80
2021/06/16 10:26:27;;;;;;;6.12;4.30;;;;;;;25.29;47.70;96815.00;1655051;85;20995;-80
2021/06/16 10:29:03;;;;;;;6.83;4.95;;;;;;;25.35;49.65;96815.27;1635913;85;20986;-80
2021/06/16 10:31:39;;;;;;;5.00;3.90;;;;;;;25.38;48.74;96824.86;1638839;85;20966;-80
2021/06/16 10:34:05;;;;;;;6.15;4.30;;;;;;;25.43;48.49;96822.73;1653929;85;20963;-80
2021/06/16 10:36:32;;;;;;;6.95;4.62;;;;;;;25.41;46.91;96828.84;1655701;85;21052;-80
2021/06/16 10:39:06;;;;;;;5.97;4.12;;;;;;;25.44;47.38;96819.80;1631611;87;21338;-80
2021/06/16 10:41:49;;;;;;;5.85;4.33;;;;;;;25.46;47.62;96826.19;1658721;85;21064;-80
2021/06/16 10:44:23;;;;;;;5.95;3.87;;;;;;;25.54;48.25;96823.52;1639577;85;20993;-80
2021/06/16 10:46:57;;;;;;;6.40;4.00;;;;;;;25.60;47.10;96828.58;1654804;85;21024;-81
2021/06/16 10:49:50;;;;;;;6.10;3.98;;;;;;;25.59;47.30;96820.34;1639124;85;21069;-80
2021/06/16 10:52:17;;;;;;;5.08;4.37;;;;;;;25.59;45.95;96820.34;1656156;85;20977;-80
2021/06/16 10:55:00;;;;;;;5.62;3.92;;;;;;;25.60;47.95;96819.27;1655849;85;21120;-80
2021/06/16 10:57:26;;;;;;;6.00;5.00;;;;;;;25.68;47.47;96819.28;1655078;85;21035;-81
2021/06/16 10:59:58;;;;;;;5.72;4.08;;;;;;;25.78;46.88;96819.82;1656384;85;20977;-81
2021/06/16 11:02:34;;;;;;;5.25;4.20;;;;;;;25.79;48.10;96817.42;1627270;87;21041;-80
2021/06/16 11:05:22;;;;;;;6.20;3.70;;;;;;;25.81;47.55;96813.95;1649811;85;20976;-81
2021/06/16 11:07:49;;;;;;;4.55;3.83;;;;;;;25.79;46.60;96808.91;1670407;85;21332;-81
2021/06/16 11:10:14;;;;;;;6.37;4.60;;;;;;;25.73;44.67;96805.99;1659505;85;21349;-81
2021/06/16 11:12:43;;;;;;;6.50;4.15;;;;;;;25.76;47.40;96816.09;1672710;85;20949;-80
2021/06/16 11:15:26;;;;;;;4.80;3.90;;;;;;;25.79;45.37;96813.43;1676862;84;21089;-81
2021/06/16 11:17:53;;;;;;;6.60;4.42;;;;;;;25.77;46.26;96809.70;1655555;85;20977;-80
2021/06/16 11:20:22;;;;;;;7.15;4.37;;;;;;;25.79;45.07;96807.58;1655466;85;20988;-80
2021/06/16 11:23:00;;;;;;;5.85;4.22;;;;;;;25.85;46.75;96807.02;1655541;85;20984;-80
2021/06/16 11:25:39;;;;;;;6.78;4.20;;;;;;;25.96;45.34;96804.62;1654715;85;21005;-80
2021/06/16 11:28:20;;;;;;;4.12;3.45;;;;;;;25.98;46.03;96794.49;1655357;85;21014;-80
2021/06/16 11:30:49;;;;;;;;;;;;;;;25.99;45.49;96802.20;1658254;85;20945;-80
2021/06/16 11:33:21;;;;;;;5.60;4.62;;;;;;;26.04;45.31;96797.42;1678102;85;20348;-80
2021/06/16 11:36:01;;;;;;;6.85;4.15;;;;;;;26.06;47.40;96796.62;1673823;85;20991;-79
2021/06/16 11:38:37;;;;;;;5.85;3.98;;;;;;;26.12;45.40;96790.20;1676712;85;20941;-80